SKG700 SKRG-SKBO
Flight info
| Callsign | SKG700 |
|---|---|
| Flight time | 0h 26m |
| Altitude | 25000 |
| Route | ISVAT2B ISVAT ISVAT5W |
| Aircraft | R722/M-SDFGRWY/S |
Departure
| Time | 2026-04-25 00:09 |
|---|---|
| Airport | Jose Maria Córdova International Airport (SKRG) |
Arrival
| Time | 2026-04-25 00:36 |
|---|---|
| Airport | El Dorado International Airport (SKBO) |
| Time | Latitude | Longitude | Altitude | Speed | Heading |
|---|---|---|---|---|---|
| 2026-04-24 23:44 | 6.17696 | -75.42679 | 7032 ft | 0 kts | 270° |
| 2026-04-24 23:57 | 6.17696 | -75.42663 | 7031 ft | 2 kts | 270° |
| 2026-04-24 23:57 | 6.17696 | -75.42647 | 7030 ft | 2 kts | 270° |
| 2026-04-24 23:57 | 6.17699 | -75.42631 | 7030 ft | 2 kts | 234° |
| 2026-04-24 23:57 | 6.17709 | -75.42623 | 7030 ft | 2 kts | 182° |
| 2026-04-24 23:58 | 6.17694 | -75.42622 | 7030 ft | 2 kts | 172° |
| 2026-04-24 23:58 | 6.17679 | -75.42619 | 7032 ft | 2 kts | 172° |
| 2026-04-24 23:58 | 6.17664 | -75.42618 | 7033 ft | 2 kts | 176° |
| 2026-04-24 23:58 | 6.17649 | -75.42617 | 7032 ft | 2 kts | 176° |
| 2026-04-24 23:59 | 6.17634 | -75.42616 | 7032 ft | 2 kts | 176° |
| 2026-04-24 23:59 | 6.17632 | -75.42616 | 7031 ft | 0 kts | 176° |
| 2026-04-25 00:01 | 6.17627 | -75.42616 | 7030 ft | 1 kts | 176° |
| 2026-04-25 00:02 | 6.17613 | -75.42615 | 7030 ft | 3 kts | 176° |
| 2026-04-25 00:02 | 6.17574 | -75.42614 | 7031 ft | 7 kts | 179° |
| 2026-04-25 00:02 | 6.17528 | -75.42614 | 7031 ft | 7 kts | 180° |
| 2026-04-25 00:02 | 6.17467 | -75.42616 | 7027 ft | 11 kts | 182° |
| 2026-04-25 00:03 | 6.17376 | -75.42621 | 7029 ft | 15 kts | 182° |
| 2026-04-25 00:03 | 6.17261 | -75.42621 | 7036 ft | 16 kts | 178° |
| 2026-04-25 00:03 | 6.17152 | -75.42619 | 7024 ft | 15 kts | 179° |
| 2026-04-25 00:03 | 6.17054 | -75.42601 | 7024 ft | 14 kts | 153° |
| 2026-04-25 00:04 | 6.16964 | -75.42548 | 7021 ft | 16 kts | 149° |
| 2026-04-25 00:04 | 6.16873 | -75.42497 | 7019 ft | 14 kts | 160° |
| 2026-04-25 00:04 | 6.16770 | -75.42485 | 7017 ft | 16 kts | 179° |
| 2026-04-25 00:04 | 6.16628 | -75.42483 | 7015 ft | 17 kts | 179° |
| 2026-04-25 00:05 | 6.16538 | -75.42482 | 7010 ft | 21 kts | 179° |
| 2026-04-25 00:05 | 6.16387 | -75.42481 | 7001 ft | 21 kts | 179° |
| 2026-04-25 00:05 | 6.16245 | -75.42479 | 7005 ft | 22 kts | 179° |
| 2026-04-25 00:05 | 6.16084 | -75.42478 | 6998 ft | 23 kts | 180° |
| 2026-04-25 00:06 | 6.15925 | -75.42477 | 6999 ft | 23 kts | 180° |
| 2026-04-25 00:06 | 6.15766 | -75.42476 | 6992 ft | 22 kts | 179° |
| 2026-04-25 00:06 | 6.15612 | -75.42475 | 6994 ft | 23 kts | 179° |
| 2026-04-25 00:06 | 6.15445 | -75.42472 | 6991 ft | 24 kts | 178° |
| 2026-04-25 00:07 | 6.15286 | -75.42474 | 6988 ft | 22 kts | 180° |
| 2026-04-25 00:07 | 6.15132 | -75.42473 | 6983 ft | 23 kts | 179° |
| 2026-04-25 00:07 | 6.14974 | -75.42472 | 6982 ft | 20 kts | 180° |
| 2026-04-25 00:07 | 6.14893 | -75.42442 | 6979 ft | 11 kts | 99° |
| 2026-04-25 00:08 | 6.14890 | -75.42369 | 6980 ft | 11 kts | 91° |
| 2026-04-25 00:08 | 6.14900 | -75.42305 | 6978 ft | 7 kts | 31° |
| 2026-04-25 00:08 | 6.15051 | -75.42299 | 6985 ft | 53 kts | 359° |
| 2026-04-25 00:08 | 6.15670 | -75.42304 | 6992 ft | 122 kts | 359° |
| 2026-04-25 00:09 | 6.16695 | -75.42314 | 7081 ft | 164 kts | 359° |
| 2026-04-25 00:09 | 6.17820 | -75.42338 | 7914 ft | 162 kts | 358° |
| 2026-04-25 00:09 | 6.18967 | -75.42333 | 8591 ft | 167 kts | 0° |
| 2026-04-25 00:09 | 6.20152 | -75.42315 | 9208 ft | 179 kts | 358° |
| 2026-04-25 00:10 | 6.21436 | -75.42182 | 9731 ft | 194 kts | 22° |
| 2026-04-25 00:10 | 6.22513 | -75.41281 | 10047 ft | 218 kts | 57° |
| 2026-04-25 00:10 | 6.22832 | -75.39764 | 10479 ft | 229 kts | 98° |
| 2026-04-25 00:10 | 6.22249 | -75.38297 | 11357 ft | 227 kts | 126° |
| 2026-04-25 00:11 | 6.21261 | -75.37058 | 12279 ft | 229 kts | 132° |
| 2026-04-25 00:11 | 6.20175 | -75.35794 | 12787 ft | 258 kts | 134° |
| 2026-04-25 00:11 | 6.18959 | -75.34262 | 12830 ft | 299 kts | 126° |
| 2026-04-25 00:11 | 6.17559 | -75.32657 | 13517 ft | 315 kts | 144° |
| 2026-04-25 00:12 | 6.15633 | -75.31489 | 14125 ft | 333 kts | 155° |
| 2026-04-25 00:12 | 6.13422 | -75.30535 | 14437 ft | 361 kts | 161° |
| 2026-04-25 00:12 | 6.11071 | -75.29711 | 15564 ft | 357 kts | 161° |
| 2026-04-25 00:12 | 6.08736 | -75.28778 | 16506 ft | 367 kts | 158° |
| 2026-04-25 00:13 | 6.06374 | -75.27727 | 17520 ft | 373 kts | 158° |
| 2026-04-25 00:13 | 6.03963 | -75.26707 | 18582 ft | 379 kts | 159° |
| 2026-04-25 00:13 | 6.01486 | -75.25723 | 19455 ft | 386 kts | 159° |
| 2026-04-25 00:13 | 5.98981 | -75.24704 | 20359 ft | 391 kts | 158° |
| 2026-04-25 00:14 | 5.96448 | -75.23636 | 21263 ft | 398 kts | 158° |
| 2026-04-25 00:14 | 5.93870 | -75.22564 | 22183 ft | 404 kts | 159° |
| 2026-04-25 00:14 | 5.91247 | -75.21491 | 23101 ft | 412 kts | 159° |
| 2026-04-25 00:14 | 5.88499 | -75.20365 | 23204 ft | 442 kts | 158° |
| 2026-04-25 00:15 | 5.85560 | -75.19148 | 23216 ft | 473 kts | 158° |
| 2026-04-25 00:15 | 5.82418 | -75.17844 | 23211 ft | 503 kts | 158° |
| 2026-04-25 00:15 | 5.79082 | -75.16472 | 23210 ft | 533 kts | 158° |
| 2026-04-25 00:15 | 5.75576 | -75.15032 | 23211 ft | 543 kts | 158° |
| 2026-04-25 00:16 | 5.72266 | -75.13625 | 23198 ft | 493 kts | 155° |
| 2026-04-25 00:16 | 5.69437 | -75.11960 | 23183 ft | 453 kts | 146° |
| 2026-04-25 00:16 | 5.66896 | -75.10287 | 23184 ft | 421 kts | 151° |
| 2026-04-25 00:16 | 5.64384 | -75.08973 | 23194 ft | 394 kts | 154° |
| 2026-04-25 00:17 | 5.62095 | -75.07598 | 23178 ft | 372 kts | 146° |
| 2026-04-25 00:17 | 5.60089 | -75.06096 | 23180 ft | 349 kts | 143° |
| 2026-04-25 00:17 | 5.58228 | -75.04664 | 23187 ft | 326 kts | 143° |
| 2026-04-25 00:17 | 5.56483 | -75.03321 | 23174 ft | 305 kts | 143° |
| 2026-04-25 00:18 | 5.54848 | -75.02067 | 23162 ft | 287 kts | 143° |
| 2026-04-25 00:18 | 5.53312 | -75.00884 | 23134 ft | 275 kts | 143° |
| 2026-04-25 00:18 | 5.51746 | -74.99679 | 23150 ft | 293 kts | 143° |
| 2026-04-25 00:18 | 5.50074 | -74.98395 | 23158 ft | 312 kts | 143° |
| 2026-04-25 00:19 | 5.48295 | -74.97033 | 23135 ft | 332 kts | 143° |
| 2026-04-25 00:19 | 5.46407 | -74.95584 | 23110 ft | 351 kts | 143° |
| 2026-04-25 00:19 | 5.44416 | -74.94059 | 23079 ft | 370 kts | 143° |
| 2026-04-25 00:19 | 5.42310 | -74.92453 | 23050 ft | 390 kts | 143° |
| 2026-04-25 00:20 | 5.40075 | -74.90781 | 23021 ft | 410 kts | 148° |
| 2026-04-25 00:20 | 5.37408 | -74.89632 | 23004 ft | 428 kts | 168° |
| 2026-04-25 00:20 | 5.34400 | -74.89260 | 22969 ft | 445 kts | 181° |
| 2026-04-25 00:20 | 5.31318 | -74.89566 | 22940 ft | 436 kts | 191° |
| 2026-04-25 00:21 | 5.28374 | -74.90154 | 22794 ft | 432 kts | 191° |
| 2026-04-25 00:21 | 5.25365 | -74.90324 | 22534 ft | 433 kts | 182° |
| 2026-04-25 00:21 | 5.22367 | -74.90077 | 22275 ft | 435 kts | 168° |
| 2026-04-25 00:21 | 5.19574 | -74.89043 | 22111 ft | 414 kts | 151° |
| 2026-04-25 00:22 | 5.17280 | -74.87451 | 20493 ft | 399 kts | 138° |
| 2026-04-25 00:22 | 5.15590 | -74.85248 | 18538 ft | 408 kts | 115° |
| 2026-04-25 00:22 | 5.14622 | -74.82663 | 17914 ft | 369 kts | 105° |
| 2026-04-25 00:22 | 5.14179 | -74.80324 | 17922 ft | 329 kts | 95° |
| 2026-04-25 00:23 | 5.14147 | -74.78087 | 17935 ft | 318 kts | 85° |
| 2026-04-25 00:23 | 5.14488 | -74.75904 | 17947 ft | 317 kts | 75° |
| 2026-04-25 00:23 | 5.15206 | -74.73820 | 17969 ft | 317 kts | 64° |
| 2026-04-25 00:23 | 5.16292 | -74.71900 | 17983 ft | 317 kts | 53° |
| 2026-04-25 00:24 | 5.17704 | -74.70217 | 17999 ft | 315 kts | 43° |
| 2026-04-25 00:24 | 5.19304 | -74.68715 | 18015 ft | 315 kts | 40° |
| 2026-04-25 00:24 | 5.20954 | -74.67240 | 18037 ft | 324 kts | 41° |
| 2026-04-25 00:24 | 5.22626 | -74.65664 | 17985 ft | 330 kts | 43° |
| 2026-04-25 00:25 | 5.24243 | -74.64042 | 17888 ft | 329 kts | 49° |
| 2026-04-25 00:25 | 5.25458 | -74.62110 | 17791 ft | 329 kts | 65° |
| 2026-04-25 00:25 | 5.26066 | -74.59901 | 17705 ft | 332 kts | 83° |
| 2026-04-25 00:25 | 5.26058 | -74.57600 | 17380 ft | 331 kts | 97° |
| 2026-04-25 00:26 | 5.25387 | -74.55380 | 17057 ft | 330 kts | 114° |
| 2026-04-25 00:26 | 5.24200 | -74.53444 | 16832 ft | 325 kts | 131° |
| 2026-04-25 00:26 | 5.22551 | -74.51919 | 16620 ft | 321 kts | 147° |
| 2026-04-25 00:26 | 5.20595 | -74.50890 | 16392 ft | 316 kts | 159° |
| 2026-04-25 00:27 | 5.18525 | -74.50164 | 16173 ft | 314 kts | 165° |
| 2026-04-25 00:27 | 5.16432 | -74.49570 | 15933 ft | 312 kts | 166° |
| 2026-04-25 00:27 | 5.14375 | -74.48952 | 15702 ft | 306 kts | 163° |
| 2026-04-25 00:27 | 5.12330 | -74.48276 | 15475 ft | 311 kts | 163° |
| 2026-04-25 00:28 | 5.10243 | -74.47597 | 15238 ft | 317 kts | 163° |
| 2026-04-25 00:28 | 5.08135 | -74.46934 | 14906 ft | 316 kts | 164° |
| 2026-04-25 00:28 | 5.06059 | -74.46279 | 14509 ft | 311 kts | 163° |
| 2026-04-25 00:28 | 5.04012 | -74.45625 | 14105 ft | 308 kts | 163° |
| 2026-04-25 00:29 | 5.01964 | -74.44971 | 13662 ft | 314 kts | 163° |
| 2026-04-25 00:29 | 4.99867 | -74.44306 | 13222 ft | 315 kts | 163° |
| 2026-04-25 00:29 | 4.97787 | -74.43643 | 13098 ft | 317 kts | 163° |
| 2026-04-25 00:29 | 4.95697 | -74.42978 | 13106 ft | 314 kts | 163° |
| 2026-04-25 00:30 | 4.93618 | -74.42316 | 13110 ft | 313 kts | 163° |
| 2026-04-25 00:30 | 4.91567 | -74.41578 | 13108 ft | 315 kts | 153° |
| 2026-04-25 00:30 | 4.89750 | -74.40364 | 13121 ft | 315 kts | 142° |
| 2026-04-25 00:30 | 4.88068 | -74.38946 | 13033 ft | 317 kts | 139° |
| 2026-04-25 00:31 | 4.86526 | -74.37466 | 12791 ft | 296 kts | 133° |
| 2026-04-25 00:31 | 4.85276 | -74.35915 | 12532 ft | 277 kts | 124° |
| 2026-04-25 00:31 | 4.84231 | -74.34356 | 12266 ft | 263 kts | 125° |
| 2026-04-25 00:31 | 4.83136 | -74.32937 | 12104 ft | 254 kts | 129° |
| 2026-04-25 00:32 | 4.82041 | -74.31546 | 11809 ft | 255 kts | 126° |
| 2026-04-25 00:32 | 4.81005 | -74.30107 | 11503 ft | 253 kts | 126° |
| 2026-04-25 00:32 | 4.79936 | -74.28700 | 11198 ft | 253 kts | 128° |
| 2026-04-25 00:32 | 4.78868 | -74.27305 | 10885 ft | 251 kts | 126° |
| 2026-04-25 00:33 | 4.77835 | -74.25902 | 10585 ft | 246 kts | 127° |
| 2026-04-25 00:33 | 4.76813 | -74.24573 | 10289 ft | 235 kts | 127° |
| 2026-04-25 00:33 | 4.75863 | -74.23301 | 9990 ft | 219 kts | 126° |
| 2026-04-25 00:33 | 4.74994 | -74.22142 | 9708 ft | 205 kts | 127° |
| 2026-04-25 00:34 | 4.74167 | -74.21059 | 9430 ft | 186 kts | 126° |
| 2026-04-25 00:34 | 4.73435 | -74.20066 | 9200 ft | 167 kts | 127° |
| 2026-04-25 00:34 | 4.72767 | -74.19204 | 8905 ft | 151 kts | 126° |
| 2026-04-25 00:34 | 4.72121 | -74.18330 | 8747 ft | 155 kts | 126° |
| 2026-04-25 00:35 | 4.71474 | -74.17471 | 8545 ft | 160 kts | 127° |
| 2026-04-25 00:35 | 4.70814 | -74.16600 | 8371 ft | 156 kts | 127° |
| 2026-04-25 00:35 | 4.70241 | -74.15845 | 8365 ft | 108 kts | 127° |
| 2026-04-25 00:35 | 4.69892 | -74.15390 | 8368 ft | 61 kts | 127° |
| 2026-04-25 00:36 | 4.69721 | -74.15081 | 8367 ft | 47 kts | 101° |
| 2026-04-25 00:36 | 4.69693 | -74.14882 | 8367 ft | 0 kts | 98° |
| 2026-04-25 00:37 | 4.69693 | -74.14879 | 8367 ft | 2 kts | 98° |
| 2026-04-25 00:37 | 4.69690 | -74.14860 | 8367 ft | 0 kts | 98° |
| 2026-04-25 00:38 | 4.69690 | -74.14858 | 8367 ft | 1 kts | 98° |
| 2026-04-25 00:38 | 4.69689 | -74.14855 | 8367 ft | 0 kts | 98° |
| 2026-04-25 00:39 | 4.69687 | -74.14836 | 8367 ft | 8 kts | 98° |
| 2026-04-25 00:39 | 4.69675 | -74.14762 | 8367 ft | 14 kts | 106° |
| 2026-04-25 00:39 | 4.69611 | -74.14659 | 8367 ft | 22 kts | 127° |
| 2026-04-25 00:40 | 4.69512 | -74.14527 | 8368 ft | 24 kts | 127° |
| 2026-04-25 00:40 | 4.69493 | -74.14502 | 8368 ft | 0 kts | 127° |
| 2026-04-25 00:41 | 4.69496 | -74.14506 | 8368 ft | 1 kts | 110° |
| 2026-04-25 00:42 | 4.69490 | -74.14523 | 8368 ft | 5 kts | 44° |
| 2026-04-25 00:42 | 4.69443 | -74.14557 | 8368 ft | 7 kts | 37° |
| 2026-04-25 00:42 | 4.69436 | -74.14562 | 8367 ft | 0 kts | 38° |
| 2026-04-25 00:43 | 4.69452 | -74.14549 | 8368 ft | 8 kts | 38° |
| 2026-04-25 00:43 | 4.69480 | -74.14503 | 8368 ft | 8 kts | 95° |
| 2026-04-25 00:44 | 4.69445 | -74.14437 | 8368 ft | 13 kts | 126° |
| 2026-04-25 00:44 | 4.69372 | -74.14338 | 8368 ft | 22 kts | 128° |
| 2026-04-25 00:44 | 4.69302 | -74.14232 | 8368 ft | 8 kts | 55° |
| 2026-04-25 00:44 | 4.69349 | -74.14198 | 8368 ft | 9 kts | 38° |
| 2026-04-25 00:45 | 4.69370 | -74.14181 | 8368 ft | 0 kts | 38° |